Flugplatz Hamburg

Bericht für EDDH

vom 14.11. um 04:20 UTC

Wind 8 kt aus 220°

Sichtweite 8000 m

aufgebrochene Bewölkung in 600 ft

Temperatur 7.0°C

Taupunkt 6.0°C

Luftfeuchtigkeit 93%

Luftdruck 1026 hPa

EDDH 140420Z 22008KT 8000 BKN006 07/06 Q1026 TEMPO 4000 BR BKN003

Prognose für EDDH

vom 13.11. um 23:00 UTC

Zwischen 00:00 UTC und 14:00 UTC

Wind 8 kt aus 240°

Sichtweite 10 km oder mehr

gering bewölkt in 2500 ft


Zwischen 03:00 UTC und 10:00 UTC zeitweise mit einer Wahrscheinlichkeit von 30%

Sichtweite 4000 m

feuchter Dunst

aufgebrochene Bewölkung in 300 ft


Zwischen 14:00 und 17:00 UTC übergehend zu

Wind 6 kt aus 170°

Sichtweite 10 km oder mehr

gering bewölkt in 2500 ft

TAF EDDH 132300Z 1400/1506 24008KT 9999 FEW025 PROB30 TEMPO 1403/1410 4000 BR BKN003 BECMG 1414/1417 17006KT
Impressum